createdAt,value
2019-02-19T00:02:24.453Z,10.80
2019-02-19T00:04:50.496Z,10.27
2019-02-19T00:07:16.346Z,9.07
2019-02-19T00:09:42.167Z,9.90
2019-02-19T00:12:08.067Z,13.33
2019-02-19T00:14:36.648Z,10.00
2019-02-19T00:17:02.565Z,12.27
2019-02-19T00:19:28.680Z,9.20
2019-02-19T00:21:54.848Z,12.87
2019-02-19T00:24:20.800Z,10.47
2019-02-19T00:26:46.638Z,8.87
2019-02-19T00:29:12.667Z,10.63
2019-02-19T00:31:38.526Z,9.57
2019-02-19T00:34:04.370Z,10.00
2019-02-19T00:36:30.329Z,9.63
2019-02-19T00:38:56.317Z,12.60
2019-02-19T00:41:22.357Z,11.70
2019-02-19T00:43:48.267Z,9.77
2019-02-19T00:46:14.391Z,8.63
2019-02-19T00:48:40.296Z,10.17
2019-02-19T00:51:06.378Z,9.00
2019-02-19T00:53:32.369Z,10.23
2019-02-19T00:56:39.907Z,9.10
2019-02-19T00:59:05.854Z,13.33
2019-02-19T01:01:31.714Z,13.33
2019-02-19T01:03:57.613Z,14.67
2019-02-19T01:06:23.430Z,9.70
2019-02-19T01:08:49.370Z,15.00
2019-02-19T01:11:15.492Z,11.40
2019-02-19T01:13:41.418Z,12.07
2019-02-19T01:16:07.241Z,8.80
2019-02-19T01:18:33.169Z,9.67
2019-02-19T01:20:59.015Z,9.17
2019-02-19T01:23:24.849Z,8.53
2019-02-19T01:25:50.788Z,9.23
2019-02-19T01:28:16.619Z,8.23
2019-02-19T01:30:42.801Z,13.43
2019-02-19T01:33:08.640Z,8.90
2019-02-19T01:35:34.613Z,8.10
2019-02-19T01:38:00.418Z,7.63
2019-02-19T01:40:26.368Z,14.97
2019-02-19T01:42:52.213Z,12.50
2019-02-19T01:45:18.134Z,9.23
2019-02-19T01:47:43.979Z,9.73
2019-02-19T01:50:09.931Z,11.50
2019-02-19T01:52:35.750Z,8.30
2019-02-19T01:55:43.214Z,9.07
2019-02-19T01:58:09.191Z,11.77
2019-02-19T02:00:35.033Z,9.67
2019-02-19T02:03:01.045Z,8.17
2019-02-19T02:05:26.988Z,8.70
2019-02-19T02:07:52.827Z,8.13
2019-02-19T02:10:18.668Z,10.00
2019-02-19T02:12:44.582Z,6.93
2019-02-19T02:15:10.528Z,8.90
2019-02-19T02:17:36.356Z,9.27
2019-02-19T02:20:43.852Z,8.53
2019-02-19T02:23:09.791Z,8.43
2019-02-19T02:25:35.630Z,9.47
2019-02-19T02:28:01.461Z,9.23
2019-02-19T02:30:27.422Z,11.83
2019-02-19T02:32:53.234Z,8.80
2019-02-19T02:35:19.102Z,10.00
2019-02-19T02:37:44.933Z,10.07
2019-02-19T02:40:10.857Z,8.93
2019-02-19T02:42:36.705Z,10.27
2019-02-19T02:45:52.798Z,8.73
2019-02-19T02:48:12.032Z,7.60
2019-02-19T02:50:37.966Z,10.20
2019-02-19T02:53:03.791Z,8.10
2019-02-19T02:55:29.710Z,9.37
2019-02-19T02:57:55.553Z,8.70
2019-02-19T03:00:21.480Z,8.57
2019-02-19T03:02:47.315Z,9.20
2019-02-19T03:05:13.217Z,10.17
2019-02-19T03:07:58.949Z,12.10
2019-02-19T03:10:24.774Z,8.53
2019-02-19T03:12:50.626Z,10.07
2019-02-19T03:15:16.568Z,13.20
2019-02-19T03:17:42.382Z,10.00
2019-02-19T03:20:08.220Z,9.03
2019-02-19T03:22:34.162Z,13.30
2019-02-19T03:24:59.986Z,11.90
2019-02-19T03:27:25.807Z,10.77
2019-02-19T03:29:51.651Z,11.50
2019-02-19T03:32:17.485Z,13.50
2019-02-19T03:34:43.355Z,10.53
2019-02-19T03:37:09.182Z,10.07
2019-02-19T03:39:35.032Z,9.80
2019-02-19T03:42:01.181Z,8.27
2019-02-19T03:44:27.020Z,10.43
2019-02-19T03:46:52.960Z,8.60
2019-02-19T03:49:18.796Z,10.40
2019-02-19T03:51:44.637Z,11.90
2019-02-19T03:54:10.471Z,10.30
2019-02-19T03:56:36.402Z,8.97
2019-02-19T03:59:02.361Z,10.40
2019-02-19T04:01:28.185Z,11.00
2019-02-19T04:03:54.023Z,11.73
2019-02-19T04:06:19.842Z,9.83
2019-02-19T04:08:45.707Z,10.30
2019-02-19T04:11:11.511Z,9.97
2019-02-19T04:13:37.343Z,11.63
2019-02-19T04:16:03.297Z,8.60
2019-02-19T04:18:29.209Z,11.43
2019-02-19T04:20:55.063Z,9.67
2019-02-19T04:23:20.982Z,12.53
2019-02-19T04:25:46.843Z,12.30
2019-02-19T04:28:12.684Z,12.87
2019-02-19T04:30:38.548Z,10.83
2019-02-19T04:33:04.354Z,10.23
2019-02-19T04:35:30.311Z,10.30
2019-02-19T04:37:56.165Z,13.00
2019-02-19T04:40:22.086Z,8.73
2019-02-19T04:42:47.938Z,10.80
2019-02-19T04:45:13.883Z,12.33
2019-02-19T04:47:39.723Z,12.60
2019-02-19T04:50:47.216Z,15.37
2019-02-19T04:53:13.078Z,13.30
2019-02-19T04:55:38.911Z,13.20
2019-02-19T04:58:04.793Z,12.97
2019-02-19T05:00:30.631Z,20.87
2019-02-19T05:02:56.468Z,16.17
2019-02-19T05:05:22.301Z,12.77
2019-02-19T05:07:48.134Z,12.20
2019-02-19T05:10:13.965Z,14.30
2019-02-19T05:12:39.797Z,18.40
2019-02-19T05:15:47.319Z,16.73
2019-02-19T05:18:13.262Z,17.50
2019-02-19T05:20:39.109Z,17.63
2019-02-19T05:23:07.034Z,17.57
2019-02-19T05:25:32.882Z,19.83
2019-02-19T05:27:58.719Z,16.90
2019-02-19T05:30:24.964Z,14.33
2019-02-19T05:32:50.799Z,18.20
2019-02-19T05:35:16.628Z,15.13
2019-02-19T05:37:42.477Z,15.37
2019-02-19T05:40:49.973Z,14.53
2019-02-19T05:43:15.841Z,15.30
2019-02-19T05:45:41.677Z,15.97
2019-02-19T05:48:07.518Z,17.40
2019-02-19T05:50:33.357Z,16.33
2019-02-19T05:52:59.201Z,13.70
2019-02-19T05:55:25.105Z,13.97
2019-02-19T05:57:50.967Z,13.40
2019-02-19T06:00:16.803Z,13.73
2019-02-19T06:02:43.023Z,13.90
2019-02-19T06:05:08.948Z,17.10
2019-02-19T06:10:48.739Z,15.97
2019-02-19T06:13:14.599Z,13.60
2019-02-19T06:15:40.649Z,13.20
2019-02-19T06:18:06.478Z,13.43
2019-02-19T06:20:32.289Z,13.00
2019-02-19T06:22:58.109Z,12.13
2019-02-19T06:25:23.956Z,14.17
2019-02-19T06:27:49.764Z,16.33
2019-02-19T06:30:15.621Z,15.10
2019-02-19T06:32:41.445Z,12.67
2019-02-19T06:35:48.950Z,14.03
2019-02-19T06:38:14.776Z,12.53
2019-02-19T06:40:40.623Z,18.13
2019-02-19T06:43:06.498Z,17.63
2019-02-19T06:45:32.342Z,15.23
2019-02-19T06:47:58.166Z,13.33
2019-02-19T06:50:24.139Z,13.63
2019-02-19T06:52:49.958Z,11.97
2019-02-19T06:55:15.811Z,13.33
2019-02-19T06:57:41.676Z,19.00
2019-02-19T07:00:49.146Z,14.17
2019-02-19T07:05:48.741Z,17.83
2019-02-19T07:08:14.580Z,12.00
2019-02-19T07:10:40.513Z,13.30
2019-02-19T07:13:06.350Z,15.90
2019-02-19T07:15:32.282Z,15.23
2019-02-19T07:17:58.140Z,18.43
2019-02-19T07:20:24.052Z,13.13
2019-02-19T07:25:43.424Z,18.87
2019-02-19T07:28:09.241Z,19.40
2019-02-19T07:30:35.065Z,22.53
2019-02-19T07:33:00.883Z,23.00
2019-02-19T07:35:26.733Z,23.77
2019-02-19T07:37:52.538Z,19.87
2019-02-19T07:40:18.472Z,22.10
2019-02-19T07:42:44.291Z,24.67
2019-02-19T07:45:52.338Z,24.93
2019-02-19T07:48:18.195Z,21.60
2019-02-19T07:50:44.130Z,24.40
2019-02-19T07:53:10.049Z,28.47
2019-02-19T07:55:36.016Z,21.50
2019-02-19T07:58:01.833Z,22.30
2019-02-19T08:00:27.755Z,29.07
2019-02-19T08:02:53.574Z,31.07
2019-02-19T08:05:19.388Z,36.20
2019-02-19T08:07:45.238Z,23.87
2019-02-19T08:10:52.695Z,22.30
2019-02-19T08:13:18.522Z,23.77
2019-02-19T08:15:44.340Z,20.03
2019-02-19T08:21:04.596Z,23.90
2019-02-19T08:23:30.430Z,22.43
2019-02-19T08:25:56.273Z,22.43
2019-02-19T08:28:22.110Z,22.30
2019-02-19T08:30:47.933Z,20.33
2019-02-19T08:33:13.778Z,18.63
2019-02-19T08:35:39.631Z,21.27
2019-02-19T08:38:05.455Z,20.90
2019-02-19T08:40:31.385Z,27.47
2019-02-19T08:42:57.226Z,19.97
2019-02-19T08:45:23.064Z,22.93
2019-02-19T08:47:49.145Z,19.80
2019-02-19T08:50:14.977Z,20.57
2019-02-19T08:52:40.785Z,20.17
2019-02-19T08:55:06.727Z,19.33
2019-02-19T08:57:32.656Z,25.00
2019-02-19T09:02:30.482Z,19.93
2019-02-19T09:04:56.394Z,24.10
2019-02-19T09:07:22.227Z,20.63
2019-02-19T09:09:48.031Z,19.43
2019-02-19T09:12:13.865Z,23.00
2019-02-19T09:14:39.795Z,19.97
2019-02-19T09:17:05.718Z,23.90
2019-02-19T09:19:31.558Z,19.90
2019-02-19T09:21:57.606Z,21.27
2019-02-19T09:24:23.431Z,24.23
2019-02-19T09:26:49.754Z,23.67
2019-02-19T09:29:15.670Z,19.70
2019-02-19T09:31:41.590Z,21.37
2019-02-19T09:34:07.560Z,21.30
2019-02-19T09:36:33.516Z,20.53
2019-02-19T09:38:59.338Z,20.20
2019-02-19T09:41:25.303Z,19.57
2019-02-19T09:43:51.292Z,23.00
2019-02-19T09:46:17.221Z,20.13
2019-02-19T09:48:43.114Z,15.63
2019-02-19T09:51:09.076Z,20.83
2019-02-19T09:53:34.989Z,26.40
2019-02-19T09:56:00.836Z,18.80
2019-02-19T09:58:26.759Z,16.97
2019-02-19T10:00:52.878Z,19.50
2019-02-19T10:03:18.902Z,20.13
2019-02-19T10:05:44.734Z,18.00
2019-02-19T10:08:10.661Z,17.00
2019-02-19T10:10:36.509Z,17.60
2019-02-19T10:13:02.335Z,19.80
2019-02-19T10:15:28.170Z,16.87
2019-02-19T10:17:54.106Z,16.07
2019-02-19T10:20:19.965Z,22.00
2019-02-19T10:22:45.897Z,20.27
2019-02-19T10:25:53.393Z,19.67
2019-02-19T10:28:19.228Z,22.60
2019-02-19T10:30:45.058Z,20.50
2019-02-19T10:33:10.898Z,18.53
2019-02-19T10:35:36.757Z,22.07
2019-02-19T10:38:02.590Z,16.33
2019-02-19T10:40:28.516Z,19.60
2019-02-19T10:42:54.457Z,20.17
2019-02-19T10:46:01.936Z,18.80
2019-02-19T10:48:27.785Z,19.67
2019-02-19T10:50:53.701Z,20.90
2019-02-19T10:53:19.659Z,21.27
2019-02-19T10:55:45.460Z,14.70
2019-02-19T10:58:11.620Z,14.10
2019-02-19T11:00:39.146Z,17.07
2019-02-19T11:03:04.980Z,14.60
2019-02-19T11:05:30.798Z,16.90
2019-02-19T11:07:56.733Z,19.60
2019-02-19T11:10:22.657Z,14.90
2019-02-19T11:12:48.637Z,12.43
2019-02-19T11:15:14.542Z,20.13
2019-02-19T11:17:40.558Z,9.07
2019-02-19T11:20:26.282Z,9.03
2019-02-19T11:22:52.120Z,6.93
2019-02-19T11:25:17.939Z,6.80
2019-02-19T11:27:43.752Z,7.87
2019-02-19T11:30:29.485Z,8.67
2019-02-19T11:32:55.426Z,4.53
2019-02-19T11:35:21.241Z,8.90
2019-02-19T11:37:47.078Z,7.80
2019-02-19T11:40:54.583Z,7.80
2019-02-19T11:43:40.277Z,7.00
2019-02-19T11:46:26.021Z,11.07
2019-02-19T11:49:11.873Z,6.40
2019-02-19T11:51:37.698Z,6.80
2019-02-19T11:54:03.652Z,6.00
2019-02-19T11:56:29.459Z,7.27
2019-02-19T11:58:55.307Z,6.90
2019-02-19T12:01:21.232Z,7.17
2019-02-19T12:03:47.133Z,6.70
2019-02-19T12:06:12.992Z,9.37
2019-02-19T12:08:39.468Z,8.20
2019-02-19T12:11:06.975Z,7.13
2019-02-19T12:13:32.895Z,7.20
2019-02-19T12:15:58.841Z,12.17
2019-02-19T12:18:24.750Z,7.77
2019-02-19T12:20:50.587Z,5.87
2019-02-19T12:23:16.399Z,8.90
2019-02-19T12:25:42.332Z,8.90
2019-02-19T12:28:08.263Z,9.57
2019-02-19T12:30:34.114Z,10.47
2019-02-19T12:32:59.934Z,7.80
2019-02-19T12:35:25.779Z,12.10
2019-02-19T12:37:51.603Z,7.80
2019-02-19T12:40:17.554Z,9.07
2019-02-19T12:42:43.354Z,8.87
2019-02-19T12:45:50.842Z,7.77
2019-02-19T12:48:36.540Z,8.27
2019-02-19T12:51:02.486Z,8.43
2019-02-19T12:53:28.423Z,7.70
2019-02-19T12:55:54.283Z,7.70
2019-02-19T12:58:20.161Z,11.03
2019-02-19T13:00:46.133Z,15.20
2019-02-19T13:03:12.085Z,9.03
2019-02-19T13:05:38.036Z,9.57
2019-02-19T13:08:03.983Z,8.30
2019-02-19T13:10:29.946Z,10.20
2019-02-19T13:12:55.916Z,11.03
2019-02-19T13:15:21.981Z,10.33
2019-02-19T13:18:07.793Z,7.17
2019-02-19T13:20:33.670Z,7.70
2019-02-19T13:23:01.767Z,11.80
2019-02-19T13:25:27.733Z,6.97
2019-02-19T13:27:53.567Z,9.37
2019-02-19T13:30:39.291Z,9.67
2019-02-19T13:33:05.152Z,8.30
2019-02-19T13:35:31.126Z,7.53
2019-02-19T13:37:57.027Z,10.73
2019-02-19T13:40:22.857Z,8.93
2019-02-19T13:42:48.662Z,13.20
2019-02-19T13:45:14.595Z,14.23
2019-02-19T13:47:40.408Z,9.63
2019-02-19T13:50:47.923Z,16.87
2019-02-19T13:53:33.654Z,17.43
2019-02-19T13:58:46.872Z,9.00
2019-02-19T14:01:12.714Z,9.00
2019-02-19T14:03:38.720Z,10.70
2019-02-19T14:06:24.455Z,10.77
2019-02-19T14:09:10.154Z,8.90
2019-02-19T14:11:36.022Z,10.20
2019-02-19T14:14:21.762Z,11.57
2019-02-19T14:19:54.954Z,9.50
2019-02-19T14:23:00.535Z,9.70
2019-02-19T14:25:46.372Z,16.93
2019-02-19T14:28:32.091Z,14.83
2019-02-19T14:31:26.600Z,22.20
2019-02-19T14:34:12.315Z,14.43
2019-02-19T14:36:58.045Z,9.97
2019-02-19T14:39:43.762Z,13.47
2019-02-19T14:45:07.093Z,8.57
2019-02-19T14:47:53.000Z,10.03
2019-02-19T14:50:39.038Z,10.60
2019-02-19T14:53:24.874Z,9.33
2019-02-19T14:56:30.484Z,11.70
2019-02-19T14:59:16.201Z,10.90
2019-02-19T15:02:01.933Z,9.93
2019-02-19T15:04:47.672Z,12.90
2019-02-19T15:07:33.391Z,12.03
2019-02-19T15:10:19.136Z,11.97
2019-02-19T15:13:24.753Z,12.00
2019-02-19T15:19:19.885Z,13.03
2019-02-19T15:22:25.352Z,11.00
2019-02-19T15:28:18.335Z,10.90
2019-02-19T15:31:04.076Z,16.30
2019-02-19T15:36:27.182Z,11.17
2019-02-19T15:44:24.050Z,12.93
2019-02-19T15:47:09.761Z,13.43
2019-02-19T15:49:55.625Z,12.77
2019-02-19T15:52:41.332Z,11.70
2019-02-19T15:55:27.074Z,13.93
2019-02-19T15:58:32.705Z,14.20
2019-02-19T16:01:18.441Z,13.67
2019-02-19T16:04:04.178Z,12.50
2019-02-19T16:07:09.762Z,14.00
2019-02-19T16:09:55.491Z,16.53
2019-02-19T16:12:41.203Z,16.00
2019-02-19T16:15:48.706Z,16.77
2019-02-19T16:18:34.423Z,16.90
2019-02-19T16:21:20.174Z,16.53
2019-02-19T16:29:16.476Z,17.47
2019-02-19T16:32:03.409Z,18.83
2019-02-19T16:34:49.196Z,19.70
2019-02-19T16:40:44.031Z,18.23
2019-02-19T16:46:37.021Z,16.67
2019-02-19T16:49:42.640Z,17.17
2019-02-19T16:55:15.737Z,13.93
2019-02-19T17:00:50.794Z,24.93
2019-02-19T17:12:47.560Z,14.70
2019-02-19T17:15:53.966Z,16.43
2019-02-19T17:18:39.789Z,17.20
2019-02-19T17:21:25.529Z,22.50
2019-02-19T17:26:58.592Z,31.03
2019-02-19T17:29:44.303Z,22.37
2019-02-19T17:32:30.075Z,42.53
2019-02-19T17:38:03.227Z,31.17
2019-02-19T17:40:48.926Z,24.50
2019-02-19T17:43:34.724Z,23.80
2019-02-19T17:49:07.911Z,23.87
2019-02-19T17:51:53.616Z,37.53
2019-02-19T17:57:13.489Z,41.17
2019-02-19T17:59:59.359Z,32.93
2019-02-19T18:02:45.170Z,42.90
2019-02-19T18:05:30.945Z,27.43
2019-02-19T18:08:16.788Z,20.80
2019-02-19T18:11:02.552Z,18.67
2019-02-19T18:16:35.955Z,17.33
2019-02-19T18:19:01.932Z,21.13
2019-02-19T18:21:27.833Z,14.13
2019-02-19T18:23:53.705Z,14.43
2019-02-19T18:26:19.658Z,15.70
2019-02-19T18:28:45.552Z,16.20
2019-02-19T18:31:11.683Z,17.03
2019-02-19T18:33:37.680Z,16.00
2019-02-19T18:36:03.629Z,13.23
2019-02-19T18:38:29.479Z,14.97
2019-02-19T18:40:55.434Z,14.90
2019-02-19T18:43:21.288Z,14.40
2019-02-19T18:45:47.209Z,14.33
2019-02-19T18:48:13.054Z,16.53
2019-02-19T18:50:39.015Z,18.17
2019-02-19T18:53:04.899Z,17.37
2019-02-19T18:55:31.248Z,19.13
2019-02-19T18:57:57.144Z,22.27
2019-02-19T19:00:23.008Z,23.73
2019-02-19T19:02:48.992Z,21.73
2019-02-19T19:05:14.842Z,21.73
2019-02-19T19:07:40.812Z,21.03
2019-02-19T19:10:48.343Z,23.03
2019-02-19T19:13:14.296Z,25.13
2019-02-19T19:15:40.148Z,19.20
2019-02-19T19:18:06.079Z,20.63
2019-02-19T19:20:32.082Z,24.80
2019-02-19T19:22:58.077Z,19.03
2019-02-19T19:28:11.365Z,24.67
2019-02-19T19:30:37.192Z,34.93
2019-02-19T19:33:03.096Z,29.10
2019-02-19T19:38:22.817Z,21.60
2019-02-19T19:40:48.758Z,26.30
2019-02-19T19:43:14.570Z,23.03
2019-02-19T19:45:40.515Z,22.77
2019-02-19T19:48:06.388Z,35.53
2019-02-19T19:50:32.337Z,25.13
2019-02-19T19:52:58.281Z,35.40
2019-02-19T19:55:24.142Z,22.47
2019-02-19T19:57:50.005Z,25.73
2019-02-19T20:00:15.995Z,22.80
2019-02-19T20:02:41.901Z,26.93
2019-02-19T20:05:49.523Z,25.40
2019-02-19T20:08:16.016Z,23.83
2019-02-19T20:10:42.064Z,21.93
2019-02-19T20:13:07.951Z,24.40
2019-02-19T20:15:33.851Z,21.57
2019-02-19T20:17:59.749Z,23.80
2019-02-19T20:20:25.808Z,24.90
2019-02-19T20:22:51.946Z,20.73
2019-02-19T20:25:17.843Z,25.30
2019-02-19T20:27:43.885Z,23.70
2019-02-19T20:30:51.429Z,23.57
2019-02-19T20:33:17.736Z,27.67
2019-02-19T20:35:43.732Z,29.37
2019-02-19T20:38:09.645Z,29.50
2019-02-19T20:40:35.553Z,24.63
2019-02-19T20:43:01.464Z,29.63
2019-02-19T20:45:27.447Z,34.37
2019-02-19T20:47:53.354Z,26.10
2019-02-19T20:50:19.294Z,25.97
2019-02-19T20:52:45.155Z,25.73
2019-02-19T20:55:11.457Z,28.13
2019-02-19T20:57:37.498Z,22.90
2019-02-19T21:00:45.000Z,23.67
2019-02-19T21:03:10.834Z,24.13
2019-02-19T21:05:36.764Z,31.37
2019-02-19T21:08:02.744Z,28.13
2019-02-19T21:10:28.596Z,23.97
2019-02-19T21:12:54.436Z,31.47
2019-02-19T21:15:20.303Z,32.67
2019-02-19T21:17:46.147Z,29.70
2019-02-19T21:20:12.100Z,26.10
2019-02-19T21:22:37.925Z,27.97
2019-02-19T21:25:45.433Z,26.50
2019-02-19T21:28:11.270Z,36.13
2019-02-19T21:30:37.205Z,25.40
2019-02-19T21:33:03.045Z,27.77
2019-02-19T21:35:28.870Z,27.80
2019-02-19T21:37:54.803Z,20.97
2019-02-19T21:40:20.632Z,21.27
2019-02-19T21:42:46.471Z,22.83
2019-02-19T21:45:53.954Z,23.33
2019-02-19T21:48:19.790Z,28.07
2019-02-19T21:50:45.637Z,23.60
2019-02-19T21:53:11.555Z,29.27
2019-02-19T21:55:37.370Z,26.00
2019-02-19T21:58:03.416Z,19.10
2019-02-19T22:00:29.240Z,21.80
2019-02-19T22:02:55.141Z,25.77
2019-02-19T22:05:20.959Z,28.63
2019-02-19T22:07:46.798Z,27.90
2019-02-19T22:10:54.278Z,22.70
2019-02-19T22:13:20.229Z,23.37
2019-02-19T22:15:46.059Z,26.57
2019-02-19T22:18:11.915Z,37.60
2019-02-19T22:20:57.630Z,39.57
2019-02-19T22:23:23.459Z,47.50
2019-02-19T22:25:49.297Z,38.10
2019-02-19T22:28:15.130Z,27.13
2019-02-19T22:30:40.978Z,33.80
2019-02-19T22:33:06.834Z,26.57
2019-02-19T22:35:32.655Z,26.13
2019-02-19T22:37:58.565Z,24.87
2019-02-19T22:40:24.383Z,23.13
2019-02-19T22:42:50.232Z,22.97
2019-02-19T22:45:16.169Z,21.40
2019-02-19T22:47:41.991Z,36.60
2019-02-19T22:50:08.231Z,60.57
2019-02-19T22:52:34.073Z,42.90
2019-02-19T22:55:19.827Z,30.90
2019-02-19T22:57:45.644Z,26.97
2019-02-19T23:00:53.143Z,26.60
2019-02-19T23:03:38.823Z,24.07
2019-02-19T23:06:04.864Z,20.90
2019-02-19T23:08:30.683Z,19.17
2019-02-19T23:10:56.500Z,22.53
2019-02-19T23:13:22.331Z,21.67
2019-02-19T23:15:48.184Z,17.67
2019-02-19T23:18:14.033Z,22.73
2019-02-19T23:20:39.957Z,26.50
2019-02-19T23:23:05.789Z,23.13
2019-02-19T23:25:31.620Z,26.40
2019-02-19T23:27:57.547Z,20.30
2019-02-19T23:30:23.396Z,24.40
2019-02-19T23:32:49.208Z,25.87
2019-02-19T23:35:34.933Z,23.73
2019-02-19T23:38:00.847Z,25.43
2019-02-19T23:40:26.686Z,30.13
2019-02-19T23:42:52.514Z,33.07
2019-02-19T23:45:18.337Z,24.23
2019-02-19T23:47:44.150Z,21.57
2019-02-19T23:50:10.091Z,34.67
2019-02-19T23:52:36.015Z,29.90
2019-02-19T23:55:43.478Z,29.83
2019-02-19T23:58:09.403Z,29.63
